Record high temperature 37.8°C Record low temperature -18.0°C Record high gust 54.6 km/h Record high average 96.6 km/h Record daily rain 43.6 mm Record low windchill -22.4°C Record high barometer 1076.0 hPa Record low barometer 924.1 hPa
Daily high pressure 1010.6 mb Daily low pressure 1005.1 mb Daily low windchill -0.4°C Daily high heat index 8.9°C Daily high gust speed 2.8 kmh ESE Daily high average speed 1.1 kmh ESE
Weather Data for Pucioasa, DB - Romania
LAST READING AT TIME: 1:30 PM DATE: 25 December 2013, time of next update: 2:00 pm
Current WeatherOvercast and gloomy/Dry Current Temperature 8.9°C (48.0°F), Apparent temp 7.8°C, Apparent temp solar 7.8°C
Maximum Temperature (since midnight)8.9°C at: 1:29 PM Minimum Temperature (since midnight)-0.4°C at: 2:19 AM
Average windspeed (ten minute)0.8 kmh (0.4 kts) Wind Direction (ten minute)E (83°)
Windchill Temperature 8.9°C Maximum Gust (last hour)2.8 kmh (1.5 kts) at: 12:57PM
Maximum Gust (since midnight)2.8 kmh (1.5 kts) at: 12:57 PM Maximum 1 minute average (since midnight)1.1 kmh (0.6 kts) at: 1:15 PM
Rainfall (last hour)0.0 mm Rainfall (since midnight)0.0 mm (0.00 in.)---
Rainfall This month 0.0 mm (0.00 in.) Rainfall To date this year 721.4 mm (28.40 in.)
Maximum rain per minute (last hour)0.0 mm/min Maximum rain per hour (last 6 hours)0.0 mm/hour
Yesterdays rainfall 0.0 mm DewPoint 1.5°C (Wet Bulb :5.9°C )
Humidity 60 %, Humidex 7.1°C Barometer corrected to msl1005.1 mb
Pressure change -0.5 mb (last hour) Trend (last hour)STEADY
Pressure change (last 12 hours)-4.5 mb Pressure change (last 6 hours)-1.5 mb
Current solar 0 W/Mē Current UV0.0
Maximum solar (since midnight) 0 W/M2 Maximum UV (since midnight)-1.0
Current 00:00 hours of sunshine today, current sky: Overcast and gloomy
Sunshine hours for the year: 00:00 hrs Sunshine hours for the month: 00:00 hrs
Current evapotranspiration rate 0.2 mm per day. Yesterday's reading 0.2

This page is updated from recent data collected by a Honeywell/Irox weather station Use the Reload or Refresh facility on your browser to retrieve the latest data.



Weather report/warning/Metars

Bucuresti Otopeni, Romania (LROP) 44-33N 026-06E 95M
Dec 25, 2013 - 06:00 AM EST / 2013.12.25 1100 UTC
Wind: Variable at 2 MPH (2 KT):0
Visibility: less than 1 mile:0
Sky conditions: overcast
Weather: fog
Temperature: 33 F (1 C)
Dew Point: 32 F (0 C)
Relative Humidity: 93%
Pressure (altimeter): 30.12 in. Hg (1020 hPa)
ob: LROP 251100Z VRB02KT 0800 R08R/1600N R26L/1700N FG SCT001 OVC002 01/00 Q1020 8819//95 TEMPO 1500 BR BKN005
cycle: 11
Sibiu, Romania (LRSB) 45-48N 024-09E 444M
Dec 25, 2013 - 06:00 AM EST / 2013.12.25 1100 UTC
Wind: from the NW (310 degrees) at 7 MPH (6 KT) (direction variable):0
Visibility: greater than 7 mile(s):0
Temperature: 41 F (5 C)
Dew Point: 32 F (0 C)
Relative Humidity: 70%
Pressure (altimeter): 29.97 in. Hg (1015 hPa)
ob: LRSB 251100Z 31006KT 280V340 CAVOK 05/00 Q1015
cycle: 11
Craiova, Romania (LRCV) 44-14N 023-52E 195M
Dec 25, 2013 - 06:00 AM EST / 2013.12.25 1100 UTC
Wind: from the NE (040 degrees) at 5 MPH (4 KT) (direction variable):0
Visibility: less than 1 mile:0
Sky conditions: obscured
Weather: freezing fog
Temperature: 28 F (-2 C)
Windchill: 23 F (-5 C):1
Dew Point: 28 F (-2 C)
Relative Humidity: 100%
Pressure (altimeter): 30.12 in. Hg (1020 hPa)
ob: LRCV 251100Z AUTO 04004KT 330V060 0250 FZFG VV001 M02/M02 Q1020
cycle: 11
Kogalniceanu, Romania (LRCK) 44-20N 028-26E 102M
Dec 25, 2013 - 06:00 AM EST / 2013.12.25 1100 UTC
Wind: from the SSE (150 degrees) at 12 MPH (10 KT):0
Visibility: 2 mile(s):0
Sky conditions: partly cloudy
Weather: mist
Temperature: 48 F (9 C)
Dew Point: 46 F (8 C)
Relative Humidity: 93%
Pressure (altimeter): 30.15 in. Hg (1021 hPa)
ob: LRCK 251100Z 15010KT 4000 BR SCT009 09/08 Q1021 1819//95 NOSIG
cycle: 11